sensor_id;sensor_type;location;lat;lon;timestamp;pressure;altitude;pressure_sealevel;temperature;humidity
74915;BME280;63475;45.140;-75.616;2023-07-29T00:01:17;100107.59;;;27.73;61.39
74915;BME280;63475;45.140;-75.616;2023-07-29T00:03:20;100106.63;;;27.68;62.16
74915;BME280;63475;45.140;-75.616;2023-07-29T00:05:23;100112.44;;;27.60;62.45
74915;BME280;63475;45.140;-75.616;2023-07-29T00:07:26;100121.97;;;27.57;62.57
74915;BME280;63475;45.140;-75.616;2023-07-29T00:09:28;100128.97;;;27.53;62.95
74915;BME280;63475;45.140;-75.616;2023-07-29T00:11:33;100137.03;;;27.48;63.16
74915;BME280;63475;45.140;-75.616;2023-07-29T00:13:39;100190.00;;;27.42;63.37
74915;BME280;63475;45.140;-75.616;2023-07-29T00:15:44;100194.75;;;27.35;59.51
74915;BME280;63475;45.140;-75.616;2023-07-29T00:17:47;100191.03;;;27.23;57.57
74915;BME280;63475;45.140;-75.616;2023-07-29T00:19:50;100190.16;;;27.11;56.78
74915;BME280;63475;45.140;-75.616;2023-07-29T00:21:52;100216.00;;;26.96;56.95
74915;BME280;63475;45.140;-75.616;2023-07-29T00:23:57;100252.47;;;26.59;61.12
74915;BME280;63475;45.140;-75.616;2023-07-29T00:26:00;100243.50;;;26.20;62.85
74915;BME280;63475;45.140;-75.616;2023-07-29T00:28:02;100221.94;;;25.99;63.49
74915;BME280;63475;45.140;-75.616;2023-07-29T00:30:05;100246.44;;;25.67;64.23
74915;BME280;63475;45.140;-75.616;2023-07-29T00:32:08;100235.03;;;25.13;66.00
74915;BME280;63475;45.140;-75.616;2023-07-29T00:34:11;100222.06;;;24.88;66.88
74915;BME280;63475;45.140;-75.616;2023-07-29T00:36:19;100181.75;;;24.70;67.90
74915;BME280;63475;45.140;-75.616;2023-07-29T00:38:22;100172.50;;;24.52;68.66
74915;BME280;63475;45.140;-75.616;2023-07-29T00:40:28;100167.47;;;24.35;69.31
74915;BME280;63475;45.140;-75.616;2023-07-29T00:42:31;100185.31;;;24.25;69.49
74915;BME280;63475;45.140;-75.616;2023-07-29T00:44:33;100185.25;;;24.12;70.12
74915;BME280;63475;45.140;-75.616;2023-07-29T00:46:40;100179.97;;;23.97;70.58
74915;BME280;63475;45.140;-75.616;2023-07-29T00:48:44;100158.78;;;23.86;71.47
74915;BME280;63475;45.140;-75.616;2023-07-29T00:50:47;100161.50;;;23.86;72.02
74915;BME280;63475;45.140;-75.616;2023-07-29T00:52:50;100164.19;;;23.73;72.27
74915;BME280;63475;45.140;-75.616;2023-07-29T00:54:52;100169.00;;;23.70;73.12
74915;BME280;63475;45.140;-75.616;2023-07-29T00:56:55;100170.22;;;23.61;73.53
74915;BME280;63475;45.140;-75.616;2023-07-29T00:58:58;100176.50;;;23.62;73.84
74915;BME280;63475;45.140;-75.616;2023-07-29T01:01:03;100180.91;;;23.56;73.96
74915;BME280;63475;45.140;-75.616;2023-07-29T01:03:08;100170.19;;;23.48;74.68
74915;BME280;63475;45.140;-75.616;2023-07-29T01:05:14;100192.38;;;23.45;74.75
74915;BME280;63475;45.140;-75.616;2023-07-29T01:07:22;100194.81;;;23.40;75.38
74915;BME280;63475;45.140;-75.616;2023-07-29T01:10:26;100202.78;;;23.35;75.46
74915;BME280;63475;45.140;-75.616;2023-07-29T01:12:27;100191.59;;;23.23;75.40
74915;BME280;63475;45.140;-75.616;2023-07-29T01:14:36;100206.03;;;23.24;76.05
74915;BME280;63475;45.140;-75.616;2023-07-29T01:16:43;100213.97;;;23.19;75.99
74915;BME280;63475;45.140;-75.616;2023-07-29T01:18:50;100214.75;;;23.13;76.01
74915;BME280;63475;45.140;-75.616;2023-07-29T01:20:59;100216.03;;;23.10;76.04
74915;BME280;63475;45.140;-75.616;2023-07-29T01:23:02;100223.09;;;23.04;76.08
74915;BME280;63475;45.140;-75.616;2023-07-29T01:25:05;100223.63;;;22.93;76.44
74915;BME280;63475;45.140;-75.616;2023-07-29T01:27:07;100217.56;;;22.91;76.72
74915;BME280;63475;45.140;-75.616;2023-07-29T01:29:10;100226.75;;;22.90;76.87
74915;BME280;63475;45.140;-75.616;2023-07-29T01:31:18;100217.72;;;22.83;77.43
74915;BME280;63475;45.140;-75.616;2023-07-29T01:33:40;100235.97;;;22.89;77.42
74915;BME280;63475;45.140;-75.616;2023-07-29T01:35:47;100231.13;;;22.85;77.79
74915;BME280;63475;45.140;-75.616;2023-07-29T01:38:01;100226.06;;;22.82;77.90
74915;BME280;63475;45.140;-75.616;2023-07-29T01:40:07;100240.91;;;22.79;78.23
74915;BME280;63475;45.140;-75.616;2023-07-29T01:42:11;100230.41;;;22.76;78.43
74915;BME280;63475;45.140;-75.616;2023-07-29T01:44:14;100232.84;;;22.71;78.43
74915;BME280;63475;45.140;-75.616;2023-07-29T01:46:17;100261.72;;;22.72;78.38
74915;BME280;63475;45.140;-75.616;2023-07-29T01:48:19;100269.38;;;22.62;78.51
74915;BME280;63475;45.140;-75.616;2023-07-29T01:50:22;100291.34;;;22.60;78.82
74915;BME280;63475;45.140;-75.616;2023-07-29T01:52:24;100307.66;;;22.60;79.16
74915;BME280;63475;45.140;-75.616;2023-07-29T01:56:39;100326.88;;;22.59;79.69
74915;BME280;63475;45.140;-75.616;2023-07-29T01:58:42;100307.56;;;22.54;79.56
74915;BME280;63475;45.140;-75.616;2023-07-29T02:00:45;100295.78;;;22.47;79.88
74915;BME280;63475;45.140;-75.616;2023-07-29T02:02:47;100285.31;;;22.44;80.25
74915;BME280;63475;45.140;-75.616;2023-07-29T02:04:50;100274.84;;;22.41;79.68
74915;BME280;63475;45.140;-75.616;2023-07-29T02:06:54;100269.13;;;22.35;79.66
74915;BME280;63475;45.140;-75.616;2023-07-29T02:08:57;100267.44;;;22.34;80.38
74915;BME280;63475;45.140;-75.616;2023-07-29T02:10:59;100263.81;;;22.27;79.79
74915;BME280;63475;45.140;-75.616;2023-07-29T02:13:03;100272.16;;;22.26;79.77
74915;BME280;63475;45.140;-75.616;2023-07-29T02:15:06;100277.34;;;22.21;79.71
74915;BME280;63475;45.140;-75.616;2023-07-29T02:17:09;100281.94;;;22.20;79.76
74915;BME280;63475;45.140;-75.616;2023-07-29T02:19:11;100264.97;;;22.18;80.03
74915;BME280;63475;45.140;-75.616;2023-07-29T02:21:15;100262.66;;;22.15;79.97
74915;BME280;63475;45.140;-75.616;2023-07-29T02:23:17;100252.81;;;22.14;79.90
74915;BME280;63475;45.140;-75.616;2023-07-29T02:25:20;100249.25;;;22.14;80.01
74915;BME280;63475;45.140;-75.616;2023-07-29T02:27:22;100238.94;;;22.09;80.13
74915;BME280;63475;45.140;-75.616;2023-07-29T02:29:29;100243.94;;;22.06;80.01
74915;BME280;63475;45.140;-75.616;2023-07-29T02:31:32;100229.00;;;22.01;80.17
74915;BME280;63475;45.140;-75.616;2023-07-29T02:33:37;100231.72;;;22.01;80.31
74915;BME280;63475;45.140;-75.616;2023-07-29T02:35:39;100232.31;;;21.97;80.59
74915;BME280;63475;45.140;-75.616;2023-07-29T02:37:42;100233.72;;;21.93;80.83
74915;BME280;63475;45.140;-75.616;2023-07-29T02:39:44;100234.75;;;21.92;80.62
74915;BME280;63475;45.140;-75.616;2023-07-29T02:41:47;100240.56;;;21.89;80.81
74915;BME280;63475;45.140;-75.616;2023-07-29T02:43:50;100247.41;;;21.85;80.79
74915;BME280;63475;45.140;-75.616;2023-07-29T02:45:53;100241.28;;;21.76;80.84
74915;BME280;63475;45.140;-75.616;2023-07-29T02:47:55;100244.84;;;21.77;80.87
74915;BME280;63475;45.140;-75.616;2023-07-29T02:49:58;100259.81;;;21.73;81.02
74915;BME280;63475;45.140;-75.616;2023-07-29T02:52:00;100266.28;;;21.72;80.61
74915;BME280;63475;45.140;-75.616;2023-07-29T02:54:03;100267.69;;;21.67;80.69
74915;BME280;63475;45.140;-75.616;2023-07-29T02:56:06;100273.09;;;21.67;80.41
74915;BME280;63475;45.140;-75.616;2023-07-29T02:58:16;100261.78;;;21.64;80.84
74915;BME280;63475;45.140;-75.616;2023-07-29T03:00:50;100255.88;;;21.60;80.75
74915;BME280;63475;45.140;-75.616;2023-07-29T03:02:53;100259.63;;;21.59;81.28
74915;BME280;63475;45.140;-75.616;2023-07-29T03:04:56;100258.31;;;21.55;81.37
74915;BME280;63475;45.140;-75.616;2023-07-29T03:06:58;100257.28;;;21.56;81.17
74915;BME280;63475;45.140;-75.616;2023-07-29T03:09:02;100244.13;;;21.53;81.32
74915;BME280;63475;45.140;-75.616;2023-07-29T03:11:12;100253.09;;;21.54;81.42
74915;BME280;63475;45.140;-75.616;2023-07-29T03:13:15;100254.13;;;21.53;81.23
74915;BME280;63475;45.140;-75.616;2023-07-29T03:15:18;100249.06;;;21.50;81.40
74915;BME280;63475;45.140;-75.616;2023-07-29T03:17:21;100243.72;;;21.42;81.37
74915;BME280;63475;45.140;-75.616;2023-07-29T03:23:29;100254.78;;;21.40;81.57
74915;BME280;63475;45.140;-75.616;2023-07-29T03:25:33;100263.84;;;21.47;81.78
74915;BME280;63475;45.140;-75.616;2023-07-29T03:27:36;100265.63;;;21.40;82.04
74915;BME280;63475;45.140;-75.616;2023-07-29T03:29:38;100260.56;;;21.37;82.18
74915;BME280;63475;45.140;-75.616;2023-07-29T03:31:41;100260.66;;;21.44;82.19
74915;BME280;63475;45.140;-75.616;2023-07-29T03:33:43;100253.44;;;21.36;82.23
74915;BME280;63475;45.140;-75.616;2023-07-29T03:35:46;100246.34;;;21.35;82.28
74915;BME280;63475;45.140;-75.616;2023-07-29T03:37:49;100251.78;;;21.35;82.38
74915;BME280;63475;45.140;-75.616;2023-07-29T03:39:52;100257.00;;;21.37;82.26
74915;BME280;63475;45.140;-75.616;2023-07-29T03:41:54;100263.09;;;21.39;82.33
74915;BME280;63475;45.140;-75.616;2023-07-29T03:43:57;100254.84;;;21.32;82.32
74915;BME280;63475;45.140;-75.616;2023-07-29T03:46:00;100242.34;;;21.31;82.09
74915;BME280;63475;45.140;-75.616;2023-07-29T03:48:03;100240.91;;;21.35;82.49
74915;BME280;63475;45.140;-75.616;2023-07-29T03:50:07;100239.88;;;21.36;82.51
74915;BME280;63475;45.140;-75.616;2023-07-29T03:52:10;100229.16;;;21.28;82.60
74915;BME280;63475;45.140;-75.616;2023-07-29T03:54:13;100217.47;;;21.27;82.58
74915;BME280;63475;45.140;-75.616;2023-07-29T03:56:16;100223.34;;;21.31;82.56
74915;BME280;63475;45.140;-75.616;2023-07-29T03:58:18;100208.81;;;21.24;82.49
74915;BME280;63475;45.140;-75.616;2023-07-29T04:00:21;100212.88;;;21.28;82.57
74915;BME280;63475;45.140;-75.616;2023-07-29T04:02:24;100212.88;;;21.28;82.39
74915;BME280;63475;45.140;-75.616;2023-07-29T04:04:26;100208.28;;;21.28;82.74
74915;BME280;63475;45.140;-75.616;2023-07-29T04:06:29;100206.94;;;21.24;82.80
74915;BME280;63475;45.140;-75.616;2023-07-29T04:08:32;100217.78;;;21.24;82.61
74915;BME280;63475;45.140;-75.616;2023-07-29T04:10:34;100224.06;;;21.25;82.55
74915;BME280;63475;45.140;-75.616;2023-07-29T04:12:37;100232.94;;;21.19;82.56
74915;BME280;63475;45.140;-75.616;2023-07-29T04:14:40;100229.38;;;21.18;82.77
74915;BME280;63475;45.140;-75.616;2023-07-29T04:16:42;100224.88;;;21.11;82.71
74915;BME280;63475;45.140;-75.616;2023-07-29T04:18:46;100222.16;;;21.11;82.54
74915;BME280;63475;45.140;-75.616;2023-07-29T04:20:49;100233.31;;;21.16;82.55
74915;BME280;63475;45.140;-75.616;2023-07-29T04:22:52;100222.94;;;21.05;82.63
74915;BME280;63475;45.140;-75.616;2023-07-29T04:24:54;100246.03;;;21.15;82.64
74915;BME280;63475;45.140;-75.616;2023-07-29T04:26:57;100236.31;;;21.06;82.56
74915;BME280;63475;45.140;-75.616;2023-07-29T04:29:00;100258.47;;;21.10;82.51
74915;BME280;63475;45.140;-75.616;2023-07-29T04:31:02;100259.31;;;21.10;82.60
74915;BME280;63475;45.140;-75.616;2023-07-29T04:33:05;100260.91;;;21.05;82.55
74915;BME280;63475;45.140;-75.616;2023-07-29T04:35:08;100260.06;;;21.04;82.84
74915;BME280;63475;45.140;-75.616;2023-07-29T04:37:11;100260.06;;;21.04;82.79
74915;BME280;63475;45.140;-75.616;2023-07-29T04:39:14;100279.34;;;21.09;82.70
74915;BME280;63475;45.140;-75.616;2023-07-29T04:41:17;100273.81;;;21.02;82.43
74915;BME280;63475;45.140;-75.616;2023-07-29T04:43:19;100280.44;;;21.00;82.67
74915;BME280;63475;45.140;-75.616;2023-07-29T04:45:22;100286.03;;;20.98;82.67
74915;BME280;63475;45.140;-75.616;2023-07-29T04:47:24;100278.38;;;21.02;82.63
74915;BME280;63475;45.140;-75.616;2023-07-29T04:49:28;100277.78;;;20.92;82.89
74915;BME280;63475;45.140;-75.616;2023-07-29T04:51:31;100279.28;;;20.94;82.98
74915;BME280;63475;45.140;-75.616;2023-07-29T04:53:36;100288.28;;;20.95;82.81
74915;BME280;63475;45.140;-75.616;2023-07-29T04:55:42;100294.53;;;20.95;82.79
74915;BME280;63475;45.140;-75.616;2023-07-29T04:57:45;100288.81;;;20.90;82.97
74915;BME280;63475;45.140;-75.616;2023-07-29T04:59:48;100291.06;;;20.87;83.15
74915;BME280;63475;45.140;-75.616;2023-07-29T05:01:51;100310.50;;;20.90;83.09
74915;BME280;63475;45.140;-75.616;2023-07-29T05:03:55;100312.28;;;20.83;83.13
74915;BME280;63475;45.140;-75.616;2023-07-29T05:06:00;100329.84;;;20.87;83.01
74915;BME280;63475;45.140;-75.616;2023-07-29T05:08:03;100325.50;;;20.86;82.93
74915;BME280;63475;45.140;-75.616;2023-07-29T05:10:06;100316.75;;;20.76;83.26
74915;BME280;63475;45.140;-75.616;2023-07-29T05:12:09;100319.75;;;20.81;83.16
74915;BME280;63475;45.140;-75.616;2023-07-29T05:14:14;100320.97;;;20.79;82.89
74915;BME280;63475;45.140;-75.616;2023-07-29T05:16:17;100313.38;;;20.74;82.87
74915;BME280;63475;45.140;-75.616;2023-07-29T05:18:19;100293.59;;;20.65;82.92
74915;BME280;63475;45.140;-75.616;2023-07-29T05:20:22;100324.22;;;20.74;83.02
74915;BME280;63475;45.140;-75.616;2023-07-29T05:22:25;100304.44;;;20.65;82.54
74915;BME280;63475;45.140;-75.616;2023-07-29T05:24:27;100305.59;;;20.71;82.28
74915;BME280;63475;45.140;-75.616;2023-07-29T05:26:30;100303.59;;;20.65;82.24
74915;BME280;63475;45.140;-75.616;2023-07-29T05:28:33;100296.41;;;20.57;82.03
74915;BME280;63475;45.140;-75.616;2023-07-29T05:30:35;100307.06;;;20.59;81.52
74915;BME280;63475;45.140;-75.616;2023-07-29T05:32:39;100308.81;;;20.52;81.18
74915;BME280;63475;45.140;-75.616;2023-07-29T05:34:42;100309.28;;;20.55;80.86
74915;BME280;63475;45.140;-75.616;2023-07-29T05:36:44;100321.31;;;20.53;80.64
74915;BME280;63475;45.140;-75.616;2023-07-29T05:38:47;100304.41;;;20.43;80.63
74915;BME280;63475;45.140;-75.616;2023-07-29T05:40:50;100304.31;;;20.36;80.64
74915;BME280;63475;45.140;-75.616;2023-07-29T05:42:53;100316.47;;;20.40;80.10
74915;BME280;63475;45.140;-75.616;2023-07-29T05:44:55;100311.59;;;20.36;80.05
74915;BME280;63475;45.140;-75.616;2023-07-29T05:46:58;100306.53;;;20.32;80.09
74915;BME280;63475;45.140;-75.616;2023-07-29T05:49:01;100301.81;;;20.26;78.98
74915;BME280;63475;45.140;-75.616;2023-07-29T05:51:03;100286.84;;;20.16;78.70
74915;BME280;63475;45.140;-75.616;2023-07-29T05:53:07;100280.44;;;20.09;79.22
74915;BME280;63475;45.140;-75.616;2023-07-29T05:55:10;100295.00;;;20.08;79.28
74915;BME280;63475;45.140;-75.616;2023-07-29T05:57:13;100308.38;;;20.09;79.15
74915;BME280;63475;45.140;-75.616;2023-07-29T05:59:16;100288.09;;;19.97;79.27
74915;BME280;63475;45.140;-75.616;2023-07-29T06:01:19;100313.13;;;19.99;79.78
74915;BME280;63475;45.140;-75.616;2023-07-29T06:03:24;100288.19;;;19.81;79.66
74915;BME280;63475;45.140;-75.616;2023-07-29T06:05:27;100299.84;;;19.89;79.58
74915;BME280;63475;45.140;-75.616;2023-07-29T06:07:30;100281.09;;;19.80;79.56
74915;BME280;63475;45.140;-75.616;2023-07-29T06:09:34;100301.56;;;19.82;79.56
74915;BME280;63475;45.140;-75.616;2023-07-29T06:11:36;100323.06;;;19.76;79.65
74915;BME280;63475;45.140;-75.616;2023-07-29T06:13:39;100320.91;;;19.71;79.79
74915;BME280;63475;45.140;-75.616;2023-07-29T06:15:42;100317.50;;;19.69;79.54
74915;BME280;63475;45.140;-75.616;2023-07-29T06:17:44;100314.63;;;19.62;79.42
74915;BME280;63475;45.140;-75.616;2023-07-29T06:19:47;100315.31;;;19.56;78.78
74915;BME280;63475;45.140;-75.616;2023-07-29T06:21:49;100311.47;;;19.51;78.61
74915;BME280;63475;45.140;-75.616;2023-07-29T06:23:52;100315.34;;;19.48;78.51
74915;BME280;63475;45.140;-75.616;2023-07-29T06:25:55;100312.66;;;19.40;78.49
74915;BME280;63475;45.140;-75.616;2023-07-29T06:27:57;100318.75;;;19.34;78.37
74915;BME280;63475;45.140;-75.616;2023-07-29T06:30:00;100329.25;;;19.29;78.17
74915;BME280;63475;45.140;-75.616;2023-07-29T06:32:03;100332.31;;;19.26;78.80
74915;BME280;63475;45.140;-75.616;2023-07-29T06:34:06;100323.69;;;19.14;78.11
74915;BME280;63475;45.140;-75.616;2023-07-29T06:36:08;100335.69;;;19.12;78.19
74915;BME280;63475;45.140;-75.616;2023-07-29T06:38:11;100327.63;;;19.04;77.78
74915;BME280;63475;45.140;-75.616;2023-07-29T06:40:13;100332.19;;;19.03;78.06
74915;BME280;63475;45.140;-75.616;2023-07-29T06:42:16;100330.31;;;18.95;77.81
74915;BME280;63475;45.140;-75.616;2023-07-29T06:44:18;100340.25;;;18.87;78.11
74915;BME280;63475;45.140;-75.616;2023-07-29T06:46:21;100332.47;;;18.84;78.92
74915;BME280;63475;45.140;-75.616;2023-07-29T06:48:24;100327.59;;;18.79;79.22
74915;BME280;63475;45.140;-75.616;2023-07-29T06:50:26;100324.53;;;18.74;79.10
74915;BME280;63475;45.140;-75.616;2023-07-29T06:52:29;100310.50;;;18.71;79.05
74915;BME280;63475;45.140;-75.616;2023-07-29T06:54:31;100313.72;;;18.66;79.62
74915;BME280;63475;45.140;-75.616;2023-07-29T06:56:34;100303.59;;;18.60;80.00
74915;BME280;63475;45.140;-75.616;2023-07-29T06:58:37;100325.38;;;18.58;80.79
74915;BME280;63475;45.140;-75.616;2023-07-29T07:00:42;100310.81;;;18.43;80.86
74915;BME280;63475;45.140;-75.616;2023-07-29T07:02:52;100332.44;;;18.51;80.89
74915;BME280;63475;45.140;-75.616;2023-07-29T07:04:55;100325.84;;;18.46;80.74
74915;BME280;63475;45.140;-75.616;2023-07-29T07:06:58;100315.53;;;18.41;80.66
74915;BME280;63475;45.140;-75.616;2023-07-29T07:09:01;100309.66;;;18.38;81.11
74915;BME280;63475;45.140;-75.616;2023-07-29T07:11:03;100302.88;;;18.34;80.63
74915;BME280;63475;45.140;-75.616;2023-07-29T07:13:06;100305.44;;;18.35;81.02
74915;BME280;63475;45.140;-75.616;2023-07-29T07:15:08;100307.44;;;18.33;80.48
74915;BME280;63475;45.140;-75.616;2023-07-29T07:17:11;100298.31;;;18.26;80.34
74915;BME280;63475;45.140;-75.616;2023-07-29T07:19:14;100290.00;;;18.19;80.59
74915;BME280;63475;45.140;-75.616;2023-07-29T07:21:17;100312.81;;;18.25;81.02
74915;BME280;63475;45.140;-75.616;2023-07-29T07:23:19;100312.63;;;18.18;81.10
74915;BME280;63475;45.140;-75.616;2023-07-29T07:25:22;100322.75;;;18.16;80.95
74915;BME280;63475;45.140;-75.616;2023-07-29T07:27:25;100330.50;;;18.11;80.65
74915;BME280;63475;45.140;-75.616;2023-07-29T07:29:27;100325.75;;;18.05;80.44
74915;BME280;63475;45.140;-75.616;2023-07-29T07:31:33;100337.94;;;18.09;80.69
74915;BME280;63475;45.140;-75.616;2023-07-29T07:33:37;100335.72;;;18.05;80.79
74915;BME280;63475;45.140;-75.616;2023-07-29T07:35:39;100319.28;;;17.98;80.84
74915;BME280;63475;45.140;-75.616;2023-07-29T07:37:44;100303.56;;;17.93;80.88
74915;BME280;63475;45.140;-75.616;2023-07-29T07:39:47;100292.28;;;17.90;80.57
74915;BME280;63475;45.140;-75.616;2023-07-29T07:41:49;100282.50;;;17.89;80.59
74915;BME280;63475;45.140;-75.616;2023-07-29T07:43:52;100275.75;;;17.93;80.76
74915;BME280;63475;45.140;-75.616;2023-07-29T07:45:59;100263.94;;;17.86;80.68
74915;BME280;63475;45.140;-75.616;2023-07-29T07:48:02;100270.19;;;17.86;81.22
74915;BME280;63475;45.140;-75.616;2023-07-29T07:50:05;100263.91;;;17.78;80.92
74915;BME280;63475;45.140;-75.616;2023-07-29T07:52:07;100269.31;;;17.78;80.78
74915;BME280;63475;45.140;-75.616;2023-07-29T07:54:10;100276.72;;;17.76;81.13
74915;BME280;63475;45.140;-75.616;2023-07-29T07:56:13;100255.44;;;17.65;81.08
74915;BME280;63475;45.140;-75.616;2023-07-29T07:58:16;100287.31;;;17.69;80.96
74915;BME280;63475;45.140;-75.616;2023-07-29T08:00:18;100271.41;;;17.58;80.95
74915;BME280;63475;45.140;-75.616;2023-07-29T08:02:27;100283.69;;;17.52;81.18
74915;BME280;63475;45.140;-75.616;2023-07-29T08:04:32;100311.03;;;17.57;81.97
74915;BME280;63475;45.140;-75.616;2023-07-29T08:06:37;100308.66;;;17.54;81.69
74915;BME280;63475;45.140;-75.616;2023-07-29T08:08:45;100319.22;;;17.48;81.41
74915;BME280;63475;45.140;-75.616;2023-07-29T08:10:50;100344.72;;;17.53;81.97
74915;BME280;63475;45.140;-75.616;2023-07-29T08:12:53;100366.25;;;17.45;82.54
74915;BME280;63475;45.140;-75.616;2023-07-29T08:14:55;100330.06;;;17.30;81.88
74915;BME280;63475;45.140;-75.616;2023-07-29T08:16:58;100330.63;;;17.34;81.80
74915;BME280;63475;45.140;-75.616;2023-07-29T08:19:01;100318.66;;;17.36;81.55
74915;BME280;63475;45.140;-75.616;2023-07-29T08:21:03;100327.75;;;17.35;81.63
74915;BME280;63475;45.140;-75.616;2023-07-29T08:23:09;100312.53;;;17.26;81.60
74915;BME280;63475;45.140;-75.616;2023-07-29T08:25:12;100319.13;;;17.32;81.85
74915;BME280;63475;45.140;-75.616;2023-07-29T08:27:14;100315.91;;;17.28;81.74
74915;BME280;63475;45.140;-75.616;2023-07-29T08:29:17;100330.06;;;17.30;81.67
74915;BME280;63475;45.140;-75.616;2023-07-29T08:31:20;100332.94;;;17.28;81.55
74915;BME280;63475;45.140;-75.616;2023-07-29T08:33:29;100304.19;;;17.11;81.60
74915;BME280;63475;45.140;-75.616;2023-07-29T08:35:32;100318.88;;;17.17;81.73
74915;BME280;63475;45.140;-75.616;2023-07-29T08:37:36;100340.84;;;17.22;81.86
74915;BME280;63475;45.140;-75.616;2023-07-29T08:39:39;100347.22;;;17.21;82.07
74915;BME280;63475;45.140;-75.616;2023-07-29T08:44:18;100353.78;;;17.18;81.92
74915;BME280;63475;45.140;-75.616;2023-07-29T08:46:25;100362.00;;;17.17;82.23
74915;BME280;63475;45.140;-75.616;2023-07-29T08:48:40;100349.53;;;17.16;81.91
74915;BME280;63475;45.140;-75.616;2023-07-29T08:50:44;100330.88;;;17.05;81.87
74915;BME280;63475;45.140;-75.616;2023-07-29T08:52:49;100341.91;;;17.11;81.87
74915;BME280;63475;45.140;-75.616;2023-07-29T08:54:53;100330.03;;;17.04;82.11
74915;BME280;63475;45.140;-75.616;2023-07-29T08:56:57;100343.50;;;17.04;82.22
74915;BME280;63475;45.140;-75.616;2023-07-29T08:59:00;100350.94;;;17.02;82.66
74915;BME280;63475;45.140;-75.616;2023-07-29T09:01:05;100357.81;;;17.05;82.67
74915;BME280;63475;45.140;-75.616;2023-07-29T09:03:08;100350.53;;;16.97;82.45
74915;BME280;63475;45.140;-75.616;2023-07-29T09:05:10;100346.00;;;16.98;82.40
74915;BME280;63475;45.140;-75.616;2023-07-29T09:07:13;100346.84;;;16.98;82.09
74915;BME280;63475;45.140;-75.616;2023-07-29T09:33:06;100312.69;;;16.81;82.51
74915;BME280;63475;45.140;-75.616;2023-07-29T09:35:13;100293.84;;;16.63;82.67
74915;BME280;63475;45.140;-75.616;2023-07-29T09:37:17;100317.56;;;16.77;82.74
74915;BME280;63475;45.140;-75.616;2023-07-29T09:39:23;100302.16;;;16.70;82.21
74915;BME280;63475;45.140;-75.616;2023-07-29T09:41:27;100318.00;;;16.73;82.44
74915;BME280;63475;45.140;-75.616;2023-07-29T09:43:32;100306.53;;;16.71;82.33
74915;BME280;63475;45.140;-75.616;2023-07-29T09:45:37;100300.63;;;16.67;82.35
74915;BME280;63475;45.140;-75.616;2023-07-29T09:47:39;100304.31;;;16.66;82.70
74915;BME280;63475;45.140;-75.616;2023-07-29T09:49:44;100305.47;;;16.64;82.71
74915;BME280;63475;45.140;-75.616;2023-07-29T09:51:47;100302.94;;;16.62;82.93
74915;BME280;63475;45.140;-75.616;2023-07-29T09:53:51;100298.69;;;16.59;82.84
74915;BME280;63475;45.140;-75.616;2023-07-29T09:55:58;100297.34;;;16.55;82.71
74915;BME280;63475;45.140;-75.616;2023-07-29T09:58:01;100304.22;;;16.58;83.25
74915;BME280;63475;45.140;-75.616;2023-07-29T10:00:06;100308.09;;;16.55;83.51
74915;BME280;63475;45.140;-75.616;2023-07-29T10:02:16;100300.63;;;16.49;83.57
74915;BME280;63475;45.140;-75.616;2023-07-29T10:04:19;100312.66;;;16.55;83.15
74915;BME280;63475;45.140;-75.616;2023-07-29T10:06:22;100312.94;;;16.52;83.10
74915;BME280;63475;45.140;-75.616;2023-07-29T10:08:25;100310.41;;;16.50;83.58
74915;BME280;63475;45.140;-75.616;2023-07-29T10:10:29;100328.41;;;16.50;83.45
74915;BME280;63475;45.140;-75.616;2023-07-29T10:12:34;100343.56;;;16.51;83.61
74915;BME280;63475;45.140;-75.616;2023-07-29T10:14:38;100337.34;;;16.50;83.86
74915;BME280;63475;45.140;-75.616;2023-07-29T10:16:42;100339.19;;;16.50;83.56
74915;BME280;63475;45.140;-75.616;2023-07-29T10:18:47;100339.09;;;16.42;83.73
74915;BME280;63475;45.140;-75.616;2023-07-29T10:20:51;100347.31;;;16.40;84.23
74915;BME280;63475;45.140;-75.616;2023-07-29T10:22:56;100351.94;;;16.48;84.25
74915;BME280;63475;45.140;-75.616;2023-07-29T10:25:04;100336.84;;;16.37;83.77
74915;BME280;63475;45.140;-75.616;2023-07-29T10:27:11;100362.31;;;16.43;84.23
74915;BME280;63475;45.140;-75.616;2023-07-29T10:29:19;100357.47;;;16.46;84.30
74915;BME280;63475;45.140;-75.616;2023-07-29T10:31:25;100356.25;;;16.41;84.10
74915;BME280;63475;45.140;-75.616;2023-07-29T10:33:27;100369.09;;;16.47;83.98
74915;BME280;63475;45.140;-75.616;2023-07-29T10:35:32;100358.63;;;16.44;84.13
74915;BME280;63475;45.140;-75.616;2023-07-29T10:37:35;100362.03;;;16.46;83.81
74915;BME280;63475;45.140;-75.616;2023-07-29T10:39:39;100351.25;;;16.46;84.05
74915;BME280;63475;45.140;-75.616;2023-07-29T10:42:00;100345.88;;;16.46;83.96
74915;BME280;63475;45.140;-75.616;2023-07-29T10:44:03;100349.84;;;16.42;84.02
74915;BME280;63475;45.140;-75.616;2023-07-29T10:46:22;100364.00;;;16.44;83.92
74915;BME280;63475;45.140;-75.616;2023-07-29T10:50:39;100371.94;;;16.45;83.92
74915;BME280;63475;45.140;-75.616;2023-07-29T10:52:42;100364.88;;;16.44;84.06
74915;BME280;63475;45.140;-75.616;2023-07-29T10:54:48;100351.16;;;16.38;84.15
74915;BME280;63475;45.140;-75.616;2023-07-29T10:56:51;100356.63;;;16.46;83.56
74915;BME280;63475;45.140;-75.616;2023-07-29T10:58:55;100360.31;;;16.45;83.59
74915;BME280;63475;45.140;-75.616;2023-07-29T11:00:58;100356.63;;;16.46;83.69
74915;BME280;63475;45.140;-75.616;2023-07-29T11:03:08;100353.25;;;16.44;83.37
74915;BME280;63475;45.140;-75.616;2023-07-29T11:05:17;100348.72;;;16.44;83.59
74915;BME280;63475;45.140;-75.616;2023-07-29T11:07:22;100354.09;;;16.44;83.41